Time;durP1;ratioP1;P1;durP2;ratioP2;P2;SDS_P1;SDS_P2;PMS_P1;PMS_P2;Temp;Humidity;BMP_temperature;BMP_pressure;BME280_temperature;BME280_humidity;BME280_pressure;Samples;Min_cycle;Max_cycle;Signal;HPM_P1;HPM_P2
2022/08/10 03:39:47;;;;;;;29.50;27.80;;;;;;;21.42;100.00;101228.59;6218377;22;20024;-87
2022/08/10 03:46:12;;;;;;;30.73;28.70;;;;;;;21.59;100.00;101217.53;6217445;23;20411;-88
2022/08/10 03:49:29;;;;;;;30.67;28.88;;;;;;;21.82;100.00;101224.34;6217186;23;20090;-86
2022/08/10 03:59:05;;;;;;;33.65;31.65;;;;;;;21.76;100.00;101230.81;6124946;23;20036;-86
2022/08/10 04:04:53;;;;;;;29.45;27.63;;;;;;;21.80;100.00;101242.69;6125894;23;20067;-87
2022/08/10 04:07:42;;;;;;;28.45;26.85;;;;;;;22.10;100.00;101241.91;6126174;23;20030;-89
2022/08/10 04:10:09;;;;;;;38.67;36.40;;;;;;;21.96;100.00;101247.03;6125867;23;20025;-87
2022/08/10 04:13:04;;;;;;;34.65;32.28;;;;;;;21.87;100.00;101248.66;6126221;23;20118;-87
2022/08/10 04:15:45;;;;;;;35.70;33.60;;;;;;;22.16;100.00;101251.69;6125887;23;20118;-88
2022/08/10 04:18:33;;;;;;;33.33;31.23;;;;;;;22.55;100.00;101251.13;6126051;23;20014;-89
2022/08/10 04:21:54;;;;;;;32.28;30.27;;;;;;;22.59;100.00;101241.34;6125954;23;20022;-86
2022/08/10 04:27:59;;;;;;;32.58;30.45;;;;;;;22.47;100.00;101251.66;6068859;23;20026;-90
2022/08/10 04:37:44;;;;;;;;;;;;;;;;;;;;;
2022/08/10 04:43:50;;;;;;;26.35;24.63;;;;;;;22.83;100.00;101257.03;6065282;23;20098;-89
2022/08/10 04:46:31;;;;;;;25.75;24.23;;;;;;;22.83;100.00;101257.03;6065992;23;20047;-87
2022/08/10 04:52:45;;;;;;;29.20;27.20;;;;;;;22.78;100.00;101257.81;6039326;23;20101;-86
2022/08/10 04:59:24;;;;;;;28.58;26.63;;;;;;;23.58;100.00;101258.91;6156766;23;20024;-89
2022/08/10 05:08:43;;;;;;;26.13;24.27;;;;;;;23.67;100.00;101259.94;6157158;23;20090;-89
2022/08/10 05:18:10;;;;;;;25.15;23.45;;;;;;;23.60;100.00;101264.84;6135968;23;20022;-86
2022/08/10 05:21:13;;;;;;;26.15;24.25;;;;;;;23.44;100.00;101272.25;6156560;23;20101;-88
2022/08/10 05:27:36;;;;;;;25.95;24.45;;;;;;;23.56;100.00;101275.44;6156702;23;20048;-87
2022/08/10 05:34:07;;;;;;;26.60;24.58;;;;;;;23.54;100.00;101280.31;6156855;23;20417;-89
2022/08/10 05:44:11;;;;;;;35.45;31.88;;;;;;;23.99;100.00;101278.47;6142810;23;20059;-91
2022/08/10 05:53:31;;;;;;;26.45;24.25;;;;;;;24.50;100.00;101275.34;6187395;23;20108;-85
2022/08/10 06:03:40;;;;;;;25.98;24.17;;;;;;;24.29;100.00;101273.91;6188690;23;20072;-90
2022/08/10 06:06:18;;;;;;;26.55;24.55;;;;;;;25.05;100.00;101277.78;6188601;23;20334;-87
2022/08/10 06:09:16;;;;;;;26.58;24.40;;;;;;;25.13;100.00;101275.25;6188463;23;20021;-87
2022/08/10 06:12:18;;;;;;;29.00;27.10;;;;;;;25.86;100.00;101280.56;6187920;23;20021;-88
2022/08/10 06:15:02;;;;;;;30.70;28.70;;;;;;;25.20;100.00;101285.78;6188309;23;20036;-86
2022/08/10 06:17:48;;;;;;;29.70;27.80;;;;;;;25.10;100.00;101281.25;6188708;23;20040;-88
2022/08/10 06:20:18;;;;;;;29.40;27.40;;;;;;;25.68;100.00;101266.66;6188418;23;20095;-87
2022/08/10 06:22:57;;;;;;;29.27;27.38;;;;;;;24.99;100.00;101270.78;6188005;23;20017;-89
2022/08/10 06:25:33;;;;;;;27.42;25.92;;;;;;;24.78;100.00;101281.91;6188384;23;20021;-85
2022/08/10 06:28:02;;;;;;;30.58;28.77;;;;;;;25.40;100.00;101281.19;6187822;23;20017;-88
2022/08/10 06:30:57;;;;;;;29.55;27.40;;;;;;;25.52;100.00;101285.09;6187803;23;20438;-86
2022/08/10 06:33:31;;;;;;;37.85;35.75;;;;;;;25.96;100.00;101274.97;6187785;23;20020;-87
2022/08/10 06:36:18;;;;;;;35.47;33.58;;;;;;;26.08;100.00;101283.47;6187762;23;20032;-88
2022/08/10 06:38:46;;;;;;;29.83;27.85;;;;;;;25.45;100.00;101276.50;6187733;23;20017;-89
2022/08/10 06:41:21;;;;;;;28.02;26.45;;;;;;;25.78;100.00;101282.84;6187977;23;20032;-86
2022/08/10 06:44:01;;;;;;;28.42;26.55;;;;;;;25.06;100.00;101282.13;6187650;23;20319;-86
2022/08/10 06:46:48;;;;;;;27.92;25.48;;;;;;;25.26;100.00;101272.94;6187921;23;20063;-88
2022/08/10 06:49:34;;;;;;;30.13;28.10;;;;;;;25.39;100.00;101279.56;6187513;23;20049;-87
2022/08/10 06:55:24;;;;;;;27.30;25.50;;;;;;;26.60;100.00;101275.31;6187813;23;20024;-89
2022/08/10 06:58:01;;;;;;;30.92;29.13;;;;;;;26.76;100.00;101278.56;6187940;23;20095;-91
2022/08/10 07:00:41;;;;;;;29.02;27.23;;;;;;;26.21;100.00;101274.59;6187835;23;20021;-88
2022/08/10 07:03:17;;;;;;;28.60;26.77;;;;;;;25.93;100.00;101272.84;6187527;23;20021;-87
2022/08/10 07:05:48;;;;;;;28.65;26.92;;;;;;;25.87;100.00;101279.47;6186953;23;20378;-87
2022/08/10 07:08:32;;;;;;;26.98;25.38;;;;;;;25.89;100.00;101280.00;6187761;23;20021;-87
2022/08/10 07:11:05;;;;;;;25.65;23.95;;;;;;;25.29;100.00;101269.63;6187501;23;20028;-87
2022/08/10 07:13:47;;;;;;;28.58;26.77;;;;;;;25.11;100.00;101280.16;6187765;23;20025;-89
2022/08/10 07:16:17;;;;;;;29.17;27.42;;;;;;;25.24;100.00;101273.25;6187864;23;20025;-85
2022/08/10 07:18:47;;;;;;;29.83;28.02;;;;;;;25.65;100.00;101267.25;6187664;23;20025;-90
2022/08/10 07:21:17;;;;;;;28.27;26.67;;;;;;;25.52;100.00;101257.91;6188007;23;20077;-90
2022/08/10 07:23:47;;;;;;;30.20;28.13;;;;;;;24.98;100.00;101271.88;6187862;23;20316;-89
2022/08/10 07:26:25;;;;;;;32.17;30.38;;;;;;;25.48;100.00;101277.84;6188580;23;20021;-88
2022/08/10 07:28:59;;;;;;;30.10;28.60;;;;;;;26.36;100.00;101268.06;6189152;23;20021;-88
2022/08/10 07:31:34;;;;;;;29.98;28.17;;;;;;;26.08;100.00;101279.97;6187933;23;20044;-85
2022/08/10 07:34:05;;;;;;;31.70;29.90;;;;;;;26.25;100.00;101277.50;6187785;23;20059;-87
2022/08/10 07:36:44;;;;;;;33.17;31.13;;;;;;;26.50;100.00;101268.13;6188517;23;20087;-87
2022/08/10 07:39:16;;;;;;;30.40;28.60;;;;;;;26.47;100.00;101272.22;6187114;23;20032;-86
2022/08/10 07:41:46;;;;;;;30.83;28.97;;;;;;;26.12;100.00;101273.63;6188863;23;20017;-86
2022/08/10 07:44:22;;;;;;;32.40;30.33;;;;;;;26.85;100.00;101268.56;6188267;23;20023;-88
2022/08/10 07:47:04;;;;;;;34.05;32.13;;;;;;;26.95;100.00;101268.34;6187479;23;20079;-88
2022/08/10 07:49:35;;;;;;;;;;;;;;;27.22;100.00;101269.50;6188699;23;20040;-88
2022/08/10 07:52:47;;;;;;;29.45;27.35;;;;;;;27.54;100.00;101279.44;6189793;23;19920;-88
2022/08/10 07:55:20;;;;;;;30.17;28.23;;;;;;;27.31;98.84;101273.13;6188629;23;20024;-87
2022/08/10 07:58:01;;;;;;;29.55;27.63;;;;;;;26.81;100.00;101271.09;6187285;23;20017;-88
2022/08/10 08:00:35;;;;;;;29.95;27.95;;;;;;;27.09;100.00;101263.72;6188074;23;20017;-86
2022/08/10 08:03:27;;;;;;;29.90;28.05;;;;;;;27.36;100.00;101262.09;6189023;23;20103;-89
2022/08/10 08:06:01;;;;;;;31.35;29.55;;;;;;;27.42;99.36;101271.00;6188017;23;20021;-84
2022/08/10 08:09:08;;;;;;;30.58;28.38;;;;;;;28.01;100.00;101264.44;6186808;23;20385;-87
2022/08/10 08:12:03;;;;;;;30.88;29.05;;;;;;;27.34;100.00;101261.59;6186920;23;20021;-87
2022/08/10 08:14:33;;;;;;;29.90;28.00;;;;;;;27.43;93.79;101245.31;6187549;23;20020;-85
2022/08/10 08:17:17;;;;;;;27.60;25.90;;;;;;;27.41;98.44;101251.06;6186540;23;20021;-87
2022/08/10 08:27:30;;;;;;;30.25;28.52;;;;;;;28.05;93.84;101245.53;6186912;23;20027;-88
2022/08/10 08:33:51;;;;;;;27.63;25.83;;;;;;;27.66;92.16;101246.97;6066761;23;20495;-88
2022/08/10 08:36:45;;;;;;;27.35;25.45;;;;;;;27.83;97.65;101251.78;6067029;23;20019;-85
2022/08/10 08:39:25;;;;;;;27.55;25.80;;;;;;;28.00;96.28;101249.19;6066554;23;20037;-85
2022/08/10 08:42:27;;;;;;;27.80;25.90;;;;;;;28.06;90.45;101250.66;6186202;23;20048;-86
2022/08/10 08:45:22;;;;;;;27.83;25.67;;;;;;;27.47;89.38;101247.09;6165176;23;20377;-88
2022/08/10 08:48:15;;;;;;;27.10;25.30;;;;;;;27.71;90.32;101235.13;6186829;23;20020;-90
2022/08/10 09:59:27;;;;;;;28.85;26.65;;;;;;;30.10;61.64;101224.00;6031664;23;20437;-87
2022/08/10 10:02:04;;;;;;;29.55;27.15;;;;;;;30.09;66.29;101225.94;5936626;23;20023;-86
2022/08/10 10:04:54;;;;;;;29.48;27.08;;;;;;;29.81;61.17;101222.78;6183992;23;20028;-90
2022/08/10 10:07:29;;;;;;;31.17;28.70;;;;;;;30.43;58.76;101229.75;6185332;23;20048;-86
2022/08/10 10:10:08;;;;;;;30.33;27.80;;;;;;;30.94;57.35;101222.44;6185621;23;20021;-90
2022/08/10 10:13:02;;;;;;;31.05;28.83;;;;;;;30.61;55.23;101210.50;6185693;23;20013;-86
2022/08/10 10:16:03;;;;;;;33.70;30.77;;;;;;;30.65;56.15;101217.72;6185173;23;20036;-87
2022/08/10 10:18:58;;;;;;;33.40;30.58;;;;;;;31.01;59.08;101211.72;6186190;23;20415;-86
2022/08/10 10:21:34;;;;;;;45.13;41.83;;;;;;;30.95;55.22;101206.78;6186126;23;20043;-90
2022/08/10 10:24:15;;;;;;;32.05;29.48;;;;;;;30.84;55.42;101211.88;6187477;23;20021;-90
2022/08/10 10:26:47;;;;;;;33.33;31.02;;;;;;;31.29;52.11;101218.66;6186878;23;20394;-88
2022/08/10 10:29:35;;;;;;;45.08;42.25;;;;;;;30.49;54.11;101214.72;6187859;23;20027;-87
2022/08/10 10:32:29;;;;;;;32.30;30.00;;;;;;;30.84;56.19;101206.38;6187714;23;20064;-87
2022/08/10 10:35:03;;;;;;;30.67;28.35;;;;;;;30.98;58.65;101204.16;6187510;23;20096;-84
2022/08/10 10:37:33;;;;;;;35.78;33.33;;;;;;;30.88;51.73;101190.84;6186622;23;20097;-85
2022/08/10 10:40:03;;;;;;;32.28;29.98;;;;;;;30.95;52.94;101201.28;6186417;23;20017;-87
2022/08/10 10:42:45;;;;;;;32.65;30.10;;;;;;;31.54;50.72;101203.97;6186932;23;20465;-86
2022/08/10 10:45:19;;;;;;;35.97;33.72;;;;;;;31.55;49.34;101197.31;6187114;23;20021;-87
2022/08/10 10:48:09;;;;;;;34.25;32.03;;;;;;;31.35;50.41;101196.22;6187335;23;20017;-88
2022/08/10 10:51:07;;;;;;;34.08;31.73;;;;;;;31.57;49.89;101184.06;6187000;23;20453;-89
2022/08/10 10:54:02;;;;;;;32.42;30.08;;;;;;;31.13;52.01;101182.78;6187629;23;20025;-88
2022/08/10 10:56:36;;;;;;;34.70;32.22;;;;;;;31.93;48.85;101185.38;6187203;23;20056;-87
2022/08/10 10:59:16;;;;;;;34.13;31.73;;;;;;;31.14;49.14;101176.97;6187026;23;20031;-87
2022/08/10 11:02:06;;;;;;;36.13;33.35;;;;;;;31.06;48.98;101188.00;6187468;23;20517;-88
2022/08/10 11:04:46;;;;;;;36.58;33.85;;;;;;;30.92;49.69;101172.59;6187372;23;20347;-87
2022/08/10 11:07:28;;;;;;;30.92;28.60;;;;;;;31.81;49.26;101166.88;6186663;23;20028;-87
2022/08/10 11:10:00;;;;;;;31.27;28.67;;;;;;;31.49;49.18;101179.44;6187590;23;20021;-87
2022/08/10 11:12:31;;;;;;;;;;;;;;;31.90;45.58;101172.31;6187983;23;20021;-87
2022/08/10 11:15:09;;;;;;;32.97;29.92;;;;;;;31.60;50.49;101177.91;6187435;23;19916;-86
2022/08/10 11:17:44;;;;;;;31.70;29.52;;;;;;;31.66;48.87;101173.00;6187399;23;20032;-86
2022/08/10 11:20:17;;;;;;;28.77;26.63;;;;;;;32.50;47.16;101164.47;6186545;23;20017;-88
2022/08/10 11:23:11;;;;;;;29.77;27.05;;;;;;;32.21;50.11;101165.50;6187981;23;20033;-88
2022/08/10 11:25:42;;;;;;;30.70;28.15;;;;;;;32.21;45.50;101176.47;6187769;23;20027;-87
2022/08/10 11:28:16;;;;;;;28.98;27.08;;;;;;;31.94;45.08;101171.28;6187106;23;20043;-88
2022/08/10 11:30:49;;;;;;;33.38;31.27;;;;;;;31.63;44.70;101163.50;6186564;23;20028;-87
2022/08/10 11:33:26;;;;;;;28.45;26.45;;;;;;;32.01;42.96;101162.47;6186671;23;20025;-89
2022/08/10 11:36:00;;;;;;;26.60;24.73;;;;;;;31.84;43.98;101141.50;6187246;23;20044;-88
2022/08/10 11:38:35;;;;;;;26.92;24.83;;;;;;;32.87;44.12;101143.25;6187339;23;20032;-86
2022/08/10 11:41:27;;;;;;;28.88;26.52;;;;;;;32.54;42.00;101137.94;6185447;23;20030;-87
2022/08/10 11:44:09;;;;;;;;;;;;;;;32.09;41.79;101147.84;6187794;23;20406;-90
2022/08/10 11:46:41;;;;;;;29.88;27.63;;;;;;;31.59;43.04;101148.03;6187372;23;19970;-86
2022/08/10 11:49:29;;;;;;;36.90;34.03;;;;;;;31.71;42.71;101128.84;6186864;23;20100;-89
2022/08/10 11:52:00;;;;;;;32.10;29.35;;;;;;;31.95;45.57;101139.13;6187061;23;20025;-87
2022/08/10 11:54:47;;;;;;;30.98;28.98;;;;;;;32.03;47.05;101129.19;6187244;23;20056;-88
2022/08/10 11:57:14;;;;;;;32.65;30.45;;;;;;;32.22;44.74;101129.41;6187005;23;20036;-86
2022/08/10 11:59:55;;;;;;;33.83;31.40;;;;;;;31.93;42.90;101144.16;6187113;23;20021;-88
2022/08/10 12:02:24;;;;;;;39.65;36.40;;;;;;;31.81;41.88;101133.13;6186415;23;20092;-87
2022/08/10 12:04:55;;;;;;;35.20;32.50;;;;;;;31.38;45.58;101126.13;6186547;23;20033;-86
2022/08/10 12:07:25;;;;;;;37.90;35.00;;;;;;;31.40;46.65;101126.59;6186586;23;20017;-84
2022/08/10 12:10:02;;;;;;;32.38;29.48;;;;;;;31.49;43.67;101116.34;6185820;23;20017;-85
2022/08/10 12:12:43;;;;;;;33.38;30.95;;;;;;;31.61;45.99;101124.59;6184467;23;20442;-86
2022/08/10 12:15:32;;;;;;;36.50;34.00;;;;;;;32.03;43.52;101129.19;6185650;23;20025;-84
2022/08/10 12:18:25;;;;;;;35.47;32.55;;;;;;;31.41;44.63;101120.78;6185965;23;20780;-84
2022/08/10 12:21:20;;;;;;;38.55;35.83;;;;;;;32.16;43.02;101117.06;6186288;23;20334;-84
2022/08/10 12:24:36;;;;;;;;;;;;;;;;;;;;;
2022/08/10 12:40:46;;;;;;;40.33;37.83;;;;;;;32.60;43.49;101103.56;5107844;27;20436;-84
2022/08/10 12:43:38;;;;;;;36.60;34.42;;;;;;;32.47;43.05;101100.03;5096230;28;20135;-83
2022/08/10 14:03:27;;;;;;;37.65;34.88;;;;;;;31.83;44.32;101060.25;4830838;29;20076;-86
2022/08/10 14:05:59;;;;;;;29.23;27.13;;;;;;;31.84;45.20;101052.81;4878568;29;20060;-84
2022/08/10 14:08:50;;;;;;;31.00;28.40;;;;;;;31.82;42.80;101058.63;4882162;29;20135;-87
2022/08/10 14:11:19;;;;;;;28.77;26.40;;;;;;;31.64;43.31;101054.50;4880675;29;20064;-87
2022/08/10 14:14:46;;;;;;;28.17;25.77;;;;;;;31.87;42.92;101050.19;4878764;29;20056;-85
2022/08/10 14:17:21;;;;;;;33.40;31.00;;;;;;;31.09;44.08;101055.69;4824460;29;20050;-84
2022/08/10 14:26:32;;;;;;;27.45;25.17;;;;;;;30.26;47.14;101052.56;4962951;28;20089;-87
2022/08/10 14:36:48;;;;;;;28.50;26.13;;;;;;;30.22;46.78;101056.28;4971888;28;20059;-85
2022/08/10 14:40:10;;;;;;;29.15;27.15;;;;;;;29.81;47.36;101049.53;4973986;28;20055;-83
2022/08/10 14:53:10;;;;;;;32.28;29.90;;;;;;;29.74;48.61;101052.75;4974047;28;20062;-86
2022/08/10 15:02:51;;;;;;;57.80;53.15;;;;;;;29.52;49.69;101051.03;4855252;29;20107;-82
2022/08/10 15:05:28;;;;;;;54.35;50.17;;;;;;;29.25;49.28;101054.13;4898767;29;20058;-84
2022/08/10 15:08:03;;;;;;;56.55;52.30;;;;;;;29.08;50.47;101050.31;4935140;29;20476;-88
2022/08/10 15:11:01;;;;;;;60.45;55.65;;;;;;;29.00;52.36;101056.53;4935351;29;20070;-86
2022/08/10 15:17:47;;;;;;;47.35;43.55;;;;;;;28.66;52.18;101052.69;4935679;29;20038;-87
2022/08/10 15:40:41;;;;;;;49.13;45.37;;;;;;;28.50;55.23;101048.78;4943052;28;20099;-85
2022/08/10 15:43:45;;;;;;;;;;;;;;;;;;;;;
2022/08/10 15:46:41;;;;;;;48.63;44.13;;;;;;;28.50;60.81;101054.25;4983874;28;20080;-85
2022/08/10 16:07:47;;;;;;;30.10;28.00;;;;;;;27.97;55.94;101049.75;4900939;29;20511;-85
2022/08/10 20:01:47;;;;;;;;;;;;;;;;;;;;;
2022/08/10 20:38:26;;;;;;;;;;;;;;;;;;;;;
2022/08/10 20:41:47;;;;;;;;;;;;;;;;;;;;;
